sensor_id;sensor_type;location;lat;lon;timestamp;P1;durP1;ratioP1;P2;durP2;ratioP2
32399;SDS011;45045;45.440;9.178;2022-10-16T00:00:36;89.88;;;65.88;;
32399;SDS011;45045;45.440;9.178;2022-10-16T00:03:04;86.80;;;61.60;;
32399;SDS011;45045;45.440;9.178;2022-10-16T00:05:30;93.47;;;66.43;;
32399;SDS011;45045;45.440;9.178;2022-10-16T00:07:56;97.55;;;65.50;;
32399;SDS011;45045;45.440;9.178;2022-10-16T00:10:22;91.75;;;65.15;;
32399;SDS011;45045;45.440;9.178;2022-10-16T00:12:47;93.10;;;64.80;;
32399;SDS011;45045;45.440;9.178;2022-10-16T00:15:13;97.05;;;64.43;;
32399;SDS011;45045;45.440;9.178;2022-10-16T00:17:39;91.10;;;63.47;;
32399;SDS011;45045;45.440;9.178;2022-10-16T00:20:04;89.03;;;62.20;;
32399;SDS011;45045;45.440;9.178;2022-10-16T00:22:31;96.30;;;69.47;;
32399;SDS011;45045;45.440;9.178;2022-10-16T00:24:56;103.95;;;72.68;;
32399;SDS011;45045;45.440;9.178;2022-10-16T00:27:22;93.53;;;64.97;;
32399;SDS011;45045;45.440;9.178;2022-10-16T00:29:51;88.13;;;61.50;;
32399;SDS011;45045;45.440;9.178;2022-10-16T00:32:17;88.97;;;62.80;;
32399;SDS011;45045;45.440;9.178;2022-10-16T00:34:44;82.45;;;61.90;;
32399;SDS011;45045;45.440;9.178;2022-10-16T00:37:10;102.65;;;72.78;;
32399;SDS011;45045;45.440;9.178;2022-10-16T00:39:36;86.70;;;61.40;;
32399;SDS011;45045;45.440;9.178;2022-10-16T00:42:02;82.78;;;61.08;;
32399;SDS011;45045;45.440;9.178;2022-10-16T00:47:27;94.55;;;64.35;;
32399;SDS011;45045;45.440;9.178;2022-10-16T00:50:02;90.72;;;65.28;;
32399;SDS011;45045;45.440;9.178;2022-10-16T00:52:36;84.20;;;60.60;;
32399;SDS011;45045;45.440;9.178;2022-10-16T00:55:05;87.13;;;63.67;;
32399;SDS011;45045;45.440;9.178;2022-10-16T00:57:32;87.43;;;59.28;;
32399;SDS011;45045;45.440;9.178;2022-10-16T00:59:58;84.28;;;59.10;;
32399;SDS011;45045;45.440;9.178;2022-10-16T01:02:23;86.07;;;63.50;;
32399;SDS011;45045;45.440;9.178;2022-10-16T01:04:52;77.00;;;57.50;;
32399;SDS011;45045;45.440;9.178;2022-10-16T01:07:28;81.68;;;58.05;;
32399;SDS011;45045;45.440;9.178;2022-10-16T01:12:45;78.40;;;56.45;;
32399;SDS011;45045;45.440;9.178;2022-10-16T01:18:11;77.75;;;54.95;;
32399;SDS011;45045;45.440;9.178;2022-10-16T01:21:02;78.25;;;54.45;;
32399;SDS011;45045;45.440;9.178;2022-10-16T01:29:34;71.35;;;52.60;;
32399;SDS011;45045;45.440;9.178;2022-10-16T01:32:09;69.78;;;50.55;;
32399;SDS011;45045;45.440;9.178;2022-10-16T01:37:39;67.70;;;53.63;;
32399;SDS011;45045;45.440;9.178;2022-10-16T01:40:10;70.32;;;52.80;;
32399;SDS011;45045;45.440;9.178;2022-10-16T01:42:45;72.95;;;52.78;;
32399;SDS011;45045;45.440;9.178;2022-10-16T01:45:14;81.07;;;52.78;;
32399;SDS011;45045;45.440;9.178;2022-10-16T01:47:43;71.93;;;51.95;;
32399;SDS011;45045;45.440;9.178;2022-10-16T01:50:10;69.20;;;52.42;;
32399;SDS011;45045;45.440;9.178;2022-10-16T01:52:39;73.35;;;52.53;;
32399;SDS011;45045;45.440;9.178;2022-10-16T01:55:07;73.45;;;54.20;;
32399;SDS011;45045;45.440;9.178;2022-10-16T01:57:36;71.53;;;52.30;;
32399;SDS011;45045;45.440;9.178;2022-10-16T02:00:07;71.85;;;52.00;;
32399;SDS011;45045;45.440;9.178;2022-10-16T02:02:36;74.90;;;50.42;;
32399;SDS011;45045;45.440;9.178;2022-10-16T02:05:11;72.60;;;52.08;;
32399;SDS011;45045;45.440;9.178;2022-10-16T02:07:43;72.22;;;51.80;;
32399;SDS011;45045;45.440;9.178;2022-10-16T02:10:09;72.88;;;53.22;;
32399;SDS011;45045;45.440;9.178;2022-10-16T02:12:36;70.25;;;51.45;;
32399;SDS011;45045;45.440;9.178;2022-10-16T02:15:05;72.35;;;51.45;;
32399;SDS011;45045;45.440;9.178;2022-10-16T02:17:31;69.68;;;52.67;;
32399;SDS011;45045;45.440;9.178;2022-10-16T02:19:57;68.85;;;51.47;;
32399;SDS011;45045;45.440;9.178;2022-10-16T02:22:35;69.53;;;51.92;;
32399;SDS011;45045;45.440;9.178;2022-10-16T02:25:06;69.82;;;52.47;;
32399;SDS011;45045;45.440;9.178;2022-10-16T02:27:59;69.05;;;51.08;;
32399;SDS011;45045;45.440;9.178;2022-10-16T02:30:37;72.22;;;53.10;;
32399;SDS011;45045;45.440;9.178;2022-10-16T02:33:09;68.38;;;50.05;;
32399;SDS011;45045;45.440;9.178;2022-10-16T02:35:38;72.75;;;52.03;;
32399;SDS011;45045;45.440;9.178;2022-10-16T02:38:06;69.03;;;49.33;;
32399;SDS011;45045;45.440;9.178;2022-10-16T02:40:33;69.25;;;49.92;;
32399;SDS011;45045;45.440;9.178;2022-10-16T02:43:00;68.05;;;51.20;;
32399;SDS011;45045;45.440;9.178;2022-10-16T02:45:27;69.75;;;51.42;;
32399;SDS011;45045;45.440;9.178;2022-10-16T02:47:54;67.00;;;51.08;;
32399;SDS011;45045;45.440;9.178;2022-10-16T02:50:19;67.82;;;50.33;;
32399;SDS011;45045;45.440;9.178;2022-10-16T02:52:45;63.50;;;49.08;;
32399;SDS011;45045;45.440;9.178;2022-10-16T02:55:11;65.82;;;49.90;;
32399;SDS011;45045;45.440;9.178;2022-10-16T02:57:36;73.45;;;51.72;;
32399;SDS011;45045;45.440;9.178;2022-10-16T03:00:04;64.22;;;48.85;;
32399;SDS011;45045;45.440;9.178;2022-10-16T03:02:30;67.00;;;49.83;;
32399;SDS011;45045;45.440;9.178;2022-10-16T03:04:56;67.65;;;48.58;;
32399;SDS011;45045;45.440;9.178;2022-10-16T03:07:21;69.18;;;49.67;;
32399;SDS011;45045;45.440;9.178;2022-10-16T03:09:47;65.70;;;49.58;;
32399;SDS011;45045;45.440;9.178;2022-10-16T03:12:13;62.33;;;48.13;;
32399;SDS011;45045;45.440;9.178;2022-10-16T03:14:38;64.65;;;47.45;;
32399;SDS011;45045;45.440;9.178;2022-10-16T03:17:05;64.90;;;48.55;;
32399;SDS011;45045;45.440;9.178;2022-10-16T03:19:31;63.65;;;47.88;;
32399;SDS011;45045;45.440;9.178;2022-10-16T03:21:56;63.50;;;46.80;;
32399;SDS011;45045;45.440;9.178;2022-10-16T03:24:24;67.88;;;48.63;;
32399;SDS011;45045;45.440;9.178;2022-10-16T03:26:50;65.57;;;47.30;;
32399;SDS011;45045;45.440;9.178;2022-10-16T03:29:15;60.60;;;45.78;;
32399;SDS011;45045;45.440;9.178;2022-10-16T03:31:41;64.28;;;47.70;;
32399;SDS011;45045;45.440;9.178;2022-10-16T03:34:07;65.22;;;48.13;;
32399;SDS011;45045;45.440;9.178;2022-10-16T03:36:33;64.38;;;46.55;;
32399;SDS011;45045;45.440;9.178;2022-10-16T03:38:59;63.75;;;46.72;;
32399;SDS011;45045;45.440;9.178;2022-10-16T03:41:25;64.18;;;48.60;;
32399;SDS011;45045;45.440;9.178;2022-10-16T03:43:52;62.90;;;46.75;;
32399;SDS011;45045;45.440;9.178;2022-10-16T03:46:17;63.67;;;47.38;;
32399;SDS011;45045;45.440;9.178;2022-10-16T03:48:43;60.88;;;46.60;;
32399;SDS011;45045;45.440;9.178;2022-10-16T03:51:09;63.13;;;47.63;;
32399;SDS011;45045;45.440;9.178;2022-10-16T03:53:34;66.28;;;48.28;;
32399;SDS011;45045;45.440;9.178;2022-10-16T03:56:00;65.63;;;47.40;;
32399;SDS011;45045;45.440;9.178;2022-10-16T03:58:25;65.97;;;48.35;;
32399;SDS011;45045;45.440;9.178;2022-10-16T04:00:51;64.72;;;48.17;;
32399;SDS011;45045;45.440;9.178;2022-10-16T04:03:17;63.60;;;47.60;;
32399;SDS011;45045;45.440;9.178;2022-10-16T04:05:44;59.50;;;46.72;;
32399;SDS011;45045;45.440;9.178;2022-10-16T04:08:09;65.50;;;46.90;;
32399;SDS011;45045;45.440;9.178;2022-10-16T04:10:35;63.45;;;48.95;;
32399;SDS011;45045;45.440;9.178;2022-10-16T04:13:01;69.22;;;48.80;;
32399;SDS011;45045;45.440;9.178;2022-10-16T04:15:26;64.20;;;49.22;;
32399;SDS011;45045;45.440;9.178;2022-10-16T04:17:52;65.78;;;48.53;;
32399;SDS011;45045;45.440;9.178;2022-10-16T04:20:18;66.55;;;48.40;;
32399;SDS011;45045;45.440;9.178;2022-10-16T04:22:44;64.32;;;48.83;;
32399;SDS011;45045;45.440;9.178;2022-10-16T04:25:10;64.22;;;47.85;;
32399;SDS011;45045;45.440;9.178;2022-10-16T04:27:36;60.97;;;48.17;;
32399;SDS011;45045;45.440;9.178;2022-10-16T04:30:03;60.70;;;47.55;;
32399;SDS011;45045;45.440;9.178;2022-10-16T04:32:29;69.10;;;48.55;;
32399;SDS011;45045;45.440;9.178;2022-10-16T04:34:55;60.70;;;45.85;;
32399;SDS011;45045;45.440;9.178;2022-10-16T04:37:24;62.30;;;46.55;;
32399;SDS011;45045;45.440;9.178;2022-10-16T04:39:50;67.82;;;46.95;;
32399;SDS011;45045;45.440;9.178;2022-10-16T04:42:17;61.28;;;46.50;;
32399;SDS011;45045;45.440;9.178;2022-10-16T04:44:42;63.13;;;46.20;;
32399;SDS011;45045;45.440;9.178;2022-10-16T04:47:08;64.90;;;47.90;;
32399;SDS011;45045;45.440;9.178;2022-10-16T04:49:34;61.90;;;46.03;;
32399;SDS011;45045;45.440;9.178;2022-10-16T04:51:59;60.75;;;46.15;;
32399;SDS011;45045;45.440;9.178;2022-10-16T04:54:25;60.80;;;46.10;;
32399;SDS011;45045;45.440;9.178;2022-10-16T04:56:50;66.03;;;46.35;;
32399;SDS011;45045;45.440;9.178;2022-10-16T04:59:17;61.17;;;47.00;;
32399;SDS011;45045;45.440;9.178;2022-10-16T05:01:43;60.90;;;46.17;;
32399;SDS011;45045;45.440;9.178;2022-10-16T05:04:09;61.88;;;46.20;;
32399;SDS011;45045;45.440;9.178;2022-10-16T05:06:36;65.30;;;47.40;;
32399;SDS011;45045;45.440;9.178;2022-10-16T05:09:03;60.60;;;46.00;;
32399;SDS011;45045;45.440;9.178;2022-10-16T05:11:32;63.22;;;48.42;;
32399;SDS011;45045;45.440;9.178;2022-10-16T05:13:58;59.67;;;45.72;;
32399;SDS011;45045;45.440;9.178;2022-10-16T05:16:24;60.58;;;45.92;;
32399;SDS011;45045;45.440;9.178;2022-10-16T05:18:51;61.80;;;46.05;;
32399;SDS011;45045;45.440;9.178;2022-10-16T05:21:17;60.90;;;45.80;;
32399;SDS011;45045;45.440;9.178;2022-10-16T05:23:42;58.30;;;45.75;;
32399;SDS011;45045;45.440;9.178;2022-10-16T05:26:08;60.60;;;45.97;;
32399;SDS011;45045;45.440;9.178;2022-10-16T05:28:34;62.13;;;46.70;;
32399;SDS011;45045;45.440;9.178;2022-10-16T05:31:04;65.13;;;45.67;;
32399;SDS011;45045;45.440;9.178;2022-10-16T05:33:31;62.42;;;46.15;;
32399;SDS011;45045;45.440;9.178;2022-10-16T05:36:00;63.25;;;45.22;;
32399;SDS011;45045;45.440;9.178;2022-10-16T05:38:28;63.38;;;46.83;;
32399;SDS011;45045;45.440;9.178;2022-10-16T05:40:53;63.35;;;46.00;;
32399;SDS011;45045;45.440;9.178;2022-10-16T05:43:19;64.30;;;46.13;;
32399;SDS011;45045;45.440;9.178;2022-10-16T05:45:52;61.25;;;45.85;;
32399;SDS011;45045;45.440;9.178;2022-10-16T05:48:22;59.25;;;43.75;;
32399;SDS011;45045;45.440;9.178;2022-10-16T05:50:48;62.25;;;46.25;;
32399;SDS011;45045;45.440;9.178;2022-10-16T05:53:22;60.42;;;45.10;;
32399;SDS011;45045;45.440;9.178;2022-10-16T05:55:56;61.90;;;44.35;;
32399;SDS011;45045;45.440;9.178;2022-10-16T05:58:23;61.97;;;44.80;;
32399;SDS011;45045;45.440;9.178;2022-10-16T06:01:00;63.58;;;46.53;;
32399;SDS011;45045;45.440;9.178;2022-10-16T06:03:28;64.90;;;45.45;;
32399;SDS011;45045;45.440;9.178;2022-10-16T06:05:54;58.28;;;45.92;;
32399;SDS011;45045;45.440;9.178;2022-10-16T06:08:20;57.30;;;43.08;;
32399;SDS011;45045;45.440;9.178;2022-10-16T06:10:47;56.95;;;45.05;;
32399;SDS011;45045;45.440;9.178;2022-10-16T06:13:14;62.42;;;46.47;;
32399;SDS011;45045;45.440;9.178;2022-10-16T06:15:41;60.22;;;43.58;;
32399;SDS011;45045;45.440;9.178;2022-10-16T06:18:10;58.17;;;43.95;;
32399;SDS011;45045;45.440;9.178;2022-10-16T06:20:36;57.88;;;43.65;;
32399;SDS011;45045;45.440;9.178;2022-10-16T06:23:03;56.60;;;41.90;;
32399;SDS011;45045;45.440;9.178;2022-10-16T06:25:29;56.78;;;41.83;;
32399;SDS011;45045;45.440;9.178;2022-10-16T06:27:56;56.13;;;41.17;;
32399;SDS011;45045;45.440;9.178;2022-10-16T06:30:21;49.03;;;40.00;;
32399;SDS011;45045;45.440;9.178;2022-10-16T06:32:47;53.85;;;40.60;;
32399;SDS011;45045;45.440;9.178;2022-10-16T06:35:13;51.35;;;39.78;;
32399;SDS011;45045;45.440;9.178;2022-10-16T06:37:39;51.20;;;39.50;;
32399;SDS011;45045;45.440;9.178;2022-10-16T06:40:04;51.88;;;39.17;;
32399;SDS011;45045;45.440;9.178;2022-10-16T06:42:30;48.78;;;38.33;;
32399;SDS011;45045;45.440;9.178;2022-10-16T06:44:56;50.45;;;39.67;;
32399;SDS011;45045;45.440;9.178;2022-10-16T06:47:21;52.22;;;39.38;;
32399;SDS011;45045;45.440;9.178;2022-10-16T06:49:47;54.53;;;39.13;;
32399;SDS011;45045;45.440;9.178;2022-10-16T06:52:13;50.17;;;38.08;;
32399;SDS011;45045;45.440;9.178;2022-10-16T06:54:38;51.15;;;37.85;;
32399;SDS011;45045;45.440;9.178;2022-10-16T06:57:04;49.20;;;38.78;;
32399;SDS011;45045;45.440;9.178;2022-10-16T06:59:29;46.38;;;37.05;;
32399;SDS011;45045;45.440;9.178;2022-10-16T07:01:55;49.67;;;37.60;;
32399;SDS011;45045;45.440;9.178;2022-10-16T07:04:21;52.33;;;39.20;;
32399;SDS011;45045;45.440;9.178;2022-10-16T07:06:46;53.28;;;39.47;;
32399;SDS011;45045;45.440;9.178;2022-10-16T07:09:12;48.13;;;37.92;;
32399;SDS011;45045;45.440;9.178;2022-10-16T07:11:39;51.55;;;38.50;;
32399;SDS011;45045;45.440;9.178;2022-10-16T07:14:11;52.50;;;38.30;;
32399;SDS011;45045;45.440;9.178;2022-10-16T07:16:44;50.78;;;38.20;;
32399;SDS011;45045;45.440;9.178;2022-10-16T07:19:09;51.70;;;38.33;;
32399;SDS011;45045;45.440;9.178;2022-10-16T07:21:37;51.67;;;38.95;;
32399;SDS011;45045;45.440;9.178;2022-10-16T07:24:04;49.33;;;38.33;;
32399;SDS011;45045;45.440;9.178;2022-10-16T07:26:32;50.22;;;38.30;;
32399;SDS011;45045;45.440;9.178;2022-10-16T07:29:01;46.03;;;37.15;;
32399;SDS011;45045;45.440;9.178;2022-10-16T07:31:27;51.75;;;38.80;;
32399;SDS011;45045;45.440;9.178;2022-10-16T07:33:52;53.35;;;39.75;;
32399;SDS011;45045;45.440;9.178;2022-10-16T07:36:19;52.20;;;39.58;;
32399;SDS011;45045;45.440;9.178;2022-10-16T07:38:46;51.20;;;39.53;;
32399;SDS011;45045;45.440;9.178;2022-10-16T07:41:13;56.53;;;41.25;;
32399;SDS011;45045;45.440;9.178;2022-10-16T07:43:40;53.13;;;40.15;;
32399;SDS011;45045;45.440;9.178;2022-10-16T07:46:14;56.33;;;40.92;;
32399;SDS011;45045;45.440;9.178;2022-10-16T07:48:41;56.45;;;41.97;;
32399;SDS011;45045;45.440;9.178;2022-10-16T07:51:10;55.72;;;40.00;;
32399;SDS011;45045;45.440;9.178;2022-10-16T07:53:37;52.97;;;40.95;;
32399;SDS011;45045;45.440;9.178;2022-10-16T07:56:06;57.47;;;44.20;;
32399;SDS011;45045;45.440;9.178;2022-10-16T07:58:33;51.85;;;41.13;;
32399;SDS011;45045;45.440;9.178;2022-10-16T08:01:03;62.10;;;41.38;;
32399;SDS011;45045;45.440;9.178;2022-10-16T08:03:30;55.38;;;41.80;;
32399;SDS011;45045;45.440;9.178;2022-10-16T08:05:56;57.78;;;40.47;;
32399;SDS011;45045;45.440;9.178;2022-10-16T08:08:23;51.17;;;39.00;;
32399;SDS011;45045;45.440;9.178;2022-10-16T08:10:49;51.13;;;39.38;;
32399;SDS011;45045;45.440;9.178;2022-10-16T08:13:14;50.05;;;39.30;;
32399;SDS011;45045;45.440;9.178;2022-10-16T08:15:41;50.78;;;38.78;;
32399;SDS011;45045;45.440;9.178;2022-10-16T08:18:07;61.58;;;41.45;;
32399;SDS011;45045;45.440;9.178;2022-10-16T08:20:34;56.25;;;42.15;;
32399;SDS011;45045;45.440;9.178;2022-10-16T08:23:00;58.10;;;41.58;;
32399;SDS011;45045;45.440;9.178;2022-10-16T08:25:26;59.33;;;41.53;;
32399;SDS011;45045;45.440;9.178;2022-10-16T08:27:52;56.13;;;41.35;;
32399;SDS011;45045;45.440;9.178;2022-10-16T08:30:18;54.90;;;42.00;;
32399;SDS011;45045;45.440;9.178;2022-10-16T08:32:45;58.47;;;41.42;;
32399;SDS011;45045;45.440;9.178;2022-10-16T08:35:11;56.38;;;41.33;;
32399;SDS011;45045;45.440;9.178;2022-10-16T08:37:38;60.90;;;42.58;;
32399;SDS011;45045;45.440;9.178;2022-10-16T08:40:04;60.53;;;42.30;;
32399;SDS011;45045;45.440;9.178;2022-10-16T08:50:55;59.22;;;42.85;;
32399;SDS011;45045;45.440;9.178;2022-10-16T08:53:24;55.47;;;41.88;;
32399;SDS011;45045;45.440;9.178;2022-10-16T08:55:58;63.00;;;42.60;;
32399;SDS011;45045;45.440;9.178;2022-10-16T08:58:28;58.03;;;43.15;;
32399;SDS011;45045;45.440;9.178;2022-10-16T09:00:59;66.28;;;43.85;;
32399;SDS011;45045;45.440;9.178;2022-10-16T09:03:47;60.17;;;44.33;;
32399;SDS011;45045;45.440;9.178;2022-10-16T09:12:04;68.68;;;47.60;;
32399;SDS011;45045;45.440;9.178;2022-10-16T09:23:00;68.13;;;47.75;;
32399;SDS011;45045;45.440;9.178;2022-10-16T09:25:39;65.22;;;47.63;;
32399;SDS011;45045;45.440;9.178;2022-10-16T09:28:08;70.28;;;47.63;;
32399;SDS011;45045;45.440;9.178;2022-10-16T09:30:35;65.93;;;48.20;;
32399;SDS011;45045;45.440;9.178;2022-10-16T09:33:02;70.38;;;47.70;;
32399;SDS011;45045;45.440;9.178;2022-10-16T09:35:33;67.53;;;48.13;;
32399;SDS011;45045;45.440;9.178;2022-10-16T09:38:21;68.13;;;46.90;;
32399;SDS011;45045;45.440;9.178;2022-10-16T09:40:57;65.75;;;45.88;;
32399;SDS011;45045;45.440;9.178;2022-10-16T09:43:31;71.75;;;49.70;;
32399;SDS011;45045;45.440;9.178;2022-10-16T09:46:09;68.22;;;47.30;;
32399;SDS011;45045;45.440;9.178;2022-10-16T09:48:51;71.63;;;49.28;;
32399;SDS011;45045;45.440;9.178;2022-10-16T09:51:25;74.80;;;51.47;;
32399;SDS011;45045;45.440;9.178;2022-10-16T09:53:58;71.72;;;50.60;;
32399;SDS011;45045;45.440;9.178;2022-10-16T09:56:34;71.53;;;49.53;;
32399;SDS011;45045;45.440;9.178;2022-10-16T09:59:02;69.35;;;49.60;;
32399;SDS011;45045;45.440;9.178;2022-10-16T10:01:37;67.38;;;48.80;;
32399;SDS011;45045;45.440;9.178;2022-10-16T10:04:07;71.10;;;50.20;;
32399;SDS011;45045;45.440;9.178;2022-10-16T10:06:34;70.80;;;49.55;;
32399;SDS011;45045;45.440;9.178;2022-10-16T10:11:39;69.25;;;50.78;;
32399;SDS011;45045;45.440;9.178;2022-10-16T10:14:17;75.68;;;51.25;;
32399;SDS011;45045;45.440;9.178;2022-10-16T10:16:48;68.22;;;50.25;;
32399;SDS011;45045;45.440;9.178;2022-10-16T10:19:16;75.13;;;51.17;;
32399;SDS011;45045;45.440;9.178;2022-10-16T10:21:49;76.13;;;52.03;;
32399;SDS011;45045;45.440;9.178;2022-10-16T10:24:17;70.65;;;50.17;;
32399;SDS011;45045;45.440;9.178;2022-10-16T10:26:54;76.00;;;53.35;;
32399;SDS011;45045;45.440;9.178;2022-10-16T10:29:30;74.70;;;52.28;;
32399;SDS011;45045;45.440;9.178;2022-10-16T10:35:11;72.38;;;53.67;;
32399;SDS011;45045;45.440;9.178;2022-10-16T10:43:22;75.15;;;53.17;;
32399;SDS011;45045;45.440;9.178;2022-10-16T10:45:52;74.35;;;50.50;;
32399;SDS011;45045;45.440;9.178;2022-10-16T10:51:08;70.82;;;51.08;;
32399;SDS011;45045;45.440;9.178;2022-10-16T10:53:50;81.20;;;53.58;;
32399;SDS011;45045;45.440;9.178;2022-10-16T11:01:52;81.07;;;54.95;;
32399;SDS011;45045;45.440;9.178;2022-10-16T11:04:33;80.50;;;55.63;;
32399;SDS011;45045;45.440;9.178;2022-10-16T11:07:01;84.78;;;58.05;;
32399;SDS011;45045;45.440;9.178;2022-10-16T11:09:31;81.72;;;56.30;;
32399;SDS011;45045;45.440;9.178;2022-10-16T11:12:11;81.22;;;56.33;;
32399;SDS011;45045;45.440;9.178;2022-10-16T11:20:20;75.97;;;55.40;;
32399;SDS011;45045;45.440;9.178;2022-10-16T11:22:58;83.55;;;58.10;;
32399;SDS011;45045;45.440;9.178;2022-10-16T11:25:39;84.93;;;57.60;;
32399;SDS011;45045;45.440;9.178;2022-10-16T11:30:57;79.32;;;55.15;;
32399;SDS011;45045;45.440;9.178;2022-10-16T11:33:36;85.82;;;59.85;;
32399;SDS011;45045;45.440;9.178;2022-10-16T11:36:09;75.97;;;55.70;;
32399;SDS011;45045;45.440;9.178;2022-10-16T11:47:08;87.25;;;59.33;;
32399;SDS011;45045;45.440;9.178;2022-10-16T11:49:57;80.18;;;57.67;;
32399;SDS011;45045;45.440;9.178;2022-10-16T11:52:44;86.13;;;60.97;;
32399;SDS011;45045;45.440;9.178;2022-10-16T11:55:31;90.70;;;63.55;;
32399;SDS011;45045;45.440;9.178;2022-10-16T11:58:03;86.82;;;62.03;;
32399;SDS011;45045;45.440;9.178;2022-10-16T12:06:01;87.43;;;59.70;;
32399;SDS011;45045;45.440;9.178;2022-10-16T12:08:44;87.22;;;60.50;;
32399;SDS011;45045;45.440;9.178;2022-10-16T12:14:04;92.03;;;63.95;;
32399;SDS011;45045;45.440;9.178;2022-10-16T12:16:33;87.68;;;60.35;;
32399;SDS011;45045;45.440;9.178;2022-10-16T12:21:38;80.00;;;59.13;;
32399;SDS011;45045;45.440;9.178;2022-10-16T12:24:04;82.90;;;57.00;;
32399;SDS011;45045;45.440;9.178;2022-10-16T12:26:39;82.63;;;58.22;;
32399;SDS011;45045;45.440;9.178;2022-10-16T12:29:14;87.75;;;58.88;;
32399;SDS011;45045;45.440;9.178;2022-10-16T12:32:00;82.90;;;58.22;;
32399;SDS011;45045;45.440;9.178;2022-10-16T12:37:07;77.68;;;58.30;;
32399;SDS011;45045;45.440;9.178;2022-10-16T12:39:36;81.47;;;58.88;;
32399;SDS011;45045;45.440;9.178;2022-10-16T12:42:31;80.50;;;58.10;;
32399;SDS011;45045;45.440;9.178;2022-10-16T12:44:59;81.90;;;57.22;;
32399;SDS011;45045;45.440;9.178;2022-10-16T12:55:01;73.53;;;55.47;;
32399;SDS011;45045;45.440;9.178;2022-10-16T12:57:40;73.57;;;56.05;;
32399;SDS011;45045;45.440;9.178;2022-10-16T13:01:02;77.25;;;54.45;;
32399;SDS011;45045;45.440;9.178;2022-10-16T13:08:51;70.82;;;52.88;;
32399;SDS011;45045;45.440;9.178;2022-10-16T13:14:27;79.03;;;54.92;;
32399;SDS011;45045;45.440;9.178;2022-10-16T13:19:59;71.38;;;52.50;;
32399;SDS011;45045;45.440;9.178;2022-10-16T13:28:22;71.70;;;51.67;;
32399;SDS011;45045;45.440;9.178;2022-10-16T13:30:55;66.60;;;50.00;;
32399;SDS011;45045;45.440;9.178;2022-10-16T13:36:02;69.32;;;49.15;;
32399;SDS011;45045;45.440;9.178;2022-10-16T13:38:33;66.07;;;51.30;;
32399;SDS011;45045;45.440;9.178;2022-10-16T13:41:02;66.75;;;48.80;;
32399;SDS011;45045;45.440;9.178;2022-10-16T13:46:16;67.38;;;49.75;;
32399;SDS011;45045;45.440;9.178;2022-10-16T13:48:59;66.15;;;51.05;;
32399;SDS011;45045;45.440;9.178;2022-10-16T13:51:26;66.97;;;49.38;;
32399;SDS011;45045;45.440;9.178;2022-10-16T13:53:52;68.28;;;50.42;;
32399;SDS011;45045;45.440;9.178;2022-10-16T13:56:21;66.72;;;50.33;;
32399;SDS011;45045;45.440;9.178;2022-10-16T13:59:03;66.97;;;50.05;;
32399;SDS011;45045;45.440;9.178;2022-10-16T14:01:32;66.35;;;49.95;;
32399;SDS011;45045;45.440;9.178;2022-10-16T14:04:04;63.17;;;48.47;;
32399;SDS011;45045;45.440;9.178;2022-10-16T14:06:34;62.08;;;47.15;;
32399;SDS011;45045;45.440;9.178;2022-10-16T14:09:05;60.28;;;45.40;;
32399;SDS011;45045;45.440;9.178;2022-10-16T14:11:46;60.10;;;45.95;;
32399;SDS011;45045;45.440;9.178;2022-10-16T14:14:16;59.33;;;45.10;;
32399;SDS011;45045;45.440;9.178;2022-10-16T14:16:43;64.53;;;48.15;;
32399;SDS011;45045;45.440;9.178;2022-10-16T14:19:13;68.05;;;50.00;;
32399;SDS011;45045;45.440;9.178;2022-10-16T14:21:58;67.22;;;50.83;;
32399;SDS011;45045;45.440;9.178;2022-10-16T14:26:52;70.13;;;49.03;;
32399;SDS011;45045;45.440;9.178;2022-10-16T14:29:21;62.35;;;49.13;;
32399;SDS011;45045;45.440;9.178;2022-10-16T14:31:55;63.28;;;49.70;;
32399;SDS011;45045;45.440;9.178;2022-10-16T14:37:01;62.03;;;48.45;;
32399;SDS011;45045;45.440;9.178;2022-10-16T14:39:42;70.05;;;50.45;;
32399;SDS011;45045;45.440;9.178;2022-10-16T14:42:14;67.20;;;50.03;;
32399;SDS011;45045;45.440;9.178;2022-10-16T14:44:42;64.82;;;50.50;;
32399;SDS011;45045;45.440;9.178;2022-10-16T14:47:09;65.13;;;48.88;;
32399;SDS011;45045;45.440;9.178;2022-10-16T14:49:38;65.22;;;49.15;;
32399;SDS011;45045;45.440;9.178;2022-10-16T14:52:12;67.00;;;50.65;;
32399;SDS011;45045;45.440;9.178;2022-10-16T14:54:38;64.30;;;49.38;;
32399;SDS011;45045;45.440;9.178;2022-10-16T14:57:04;64.47;;;49.03;;
32399;SDS011;45045;45.440;9.178;2022-10-16T14:59:36;62.83;;;49.15;;
32399;SDS011;45045;45.440;9.178;2022-10-16T15:04:42;70.60;;;49.78;;
32399;SDS011;45045;45.440;9.178;2022-10-16T15:07:07;66.05;;;50.45;;
32399;SDS011;45045;45.440;9.178;2022-10-16T15:09:33;65.15;;;48.90;;
32399;SDS011;45045;45.440;9.178;2022-10-16T15:11:59;66.15;;;50.92;;
32399;SDS011;45045;45.440;9.178;2022-10-16T15:14:24;62.78;;;49.13;;
32399;SDS011;45045;45.440;9.178;2022-10-16T15:16:50;66.55;;;48.55;;
32399;SDS011;45045;45.440;9.178;2022-10-16T15:19:15;64.78;;;49.85;;
32399;SDS011;45045;45.440;9.178;2022-10-16T15:21:41;65.07;;;49.45;;
32399;SDS011;45045;45.440;9.178;2022-10-16T15:24:09;68.53;;;49.70;;
32399;SDS011;45045;45.440;9.178;2022-10-16T15:26:38;68.40;;;49.38;;
32399;SDS011;45045;45.440;9.178;2022-10-16T15:29:04;68.25;;;50.22;;
32399;SDS011;45045;45.440;9.178;2022-10-16T15:31:30;59.50;;;46.55;;
32399;SDS011;45045;45.440;9.178;2022-10-16T15:33:56;60.50;;;46.75;;
32399;SDS011;45045;45.440;9.178;2022-10-16T15:36:29;60.67;;;46.53;;
32399;SDS011;45045;45.440;9.178;2022-10-16T15:38:58;57.35;;;45.28;;
32399;SDS011;45045;45.440;9.178;2022-10-16T15:41:24;60.50;;;46.83;;
32399;SDS011;45045;45.440;9.178;2022-10-16T15:43:50;62.83;;;46.22;;
32399;SDS011;45045;45.440;9.178;2022-10-16T15:46:18;57.70;;;44.63;;
32399;SDS011;45045;45.440;9.178;2022-10-16T15:48:45;61.58;;;45.15;;
32399;SDS011;45045;45.440;9.178;2022-10-16T15:51:12;57.33;;;45.40;;
32399;SDS011;45045;45.440;9.178;2022-10-16T15:53:37;59.83;;;46.75;;
32399;SDS011;45045;45.440;9.178;2022-10-16T15:56:07;61.25;;;44.70;;
32399;SDS011;45045;45.440;9.178;2022-10-16T15:58:34;60.73;;;45.27;;
32399;SDS011;45045;45.440;9.178;2022-10-16T16:01:00;58.72;;;44.47;;
32399;SDS011;45045;45.440;9.178;2022-10-16T16:03:27;90.38;;;73.95;;
32399;SDS011;45045;45.440;9.178;2022-10-16T16:05:53;60.63;;;45.97;;
32399;SDS011;45045;45.440;9.178;2022-10-16T16:08:18;57.03;;;44.88;;
32399;SDS011;45045;45.440;9.178;2022-10-16T16:10:44;62.35;;;45.47;;
32399;SDS011;45045;45.440;9.178;2022-10-16T16:13:10;55.05;;;42.63;;
32399;SDS011;45045;45.440;9.178;2022-10-16T16:15:38;59.92;;;42.70;;
32399;SDS011;45045;45.440;9.178;2022-10-16T16:18:05;58.20;;;44.00;;
32399;SDS011;45045;45.440;9.178;2022-10-16T16:20:31;57.00;;;42.33;;
32399;SDS011;45045;45.440;9.178;2022-10-16T16:22:57;54.33;;;43.40;;
32399;SDS011;45045;45.440;9.178;2022-10-16T16:25:22;56.00;;;41.75;;
32399;SDS011;45045;45.440;9.178;2022-10-16T16:27:48;53.97;;;42.28;;
32399;SDS011;45045;45.440;9.178;2022-10-16T16:30:14;53.10;;;40.40;;
32399;SDS011;45045;45.440;9.178;2022-10-16T16:32:39;54.20;;;42.33;;
32399;SDS011;45045;45.440;9.178;2022-10-16T16:35:05;53.55;;;41.22;;
32399;SDS011;45045;45.440;9.178;2022-10-16T16:37:33;56.53;;;43.63;;
32399;SDS011;45045;45.440;9.178;2022-10-16T16:39:59;62.47;;;46.35;;